Time;durP1;ratioP1;P1;durP2;ratioP2;P2;SDS_P1;SDS_P2;PMS_P1;PMS_P2;Temp;Humidity;BMP_temperature;BMP_pressure;BME280_temperature;BME280_humidity;BME280_pressure;Samples;Min_cycle;Max_cycle;Signal;HPM_P1;HPM_P2
2021/01/27 06:06:10;;;;;;;17.40;15.50;;;16.10;65.60;;;;;;5033899;28;20403;-27
2021/01/27 06:08:46;;;;;;;16.90;15.10;;;16.50;66.60;;;;;;5031656;28;20440;-32
2021/01/27 06:11:12;;;;;;;19.63;16.75;;;16.50;66.40;;;;;;5036601;28;20107;-29
2021/01/27 06:13:38;;;;;;;16.33;14.50;;;16.60;67.00;;;;;;4989898;28;20531;-30
2021/01/27 06:16:20;;;;;;;16.65;14.82;;;16.70;65.80;;;;;;4983785;28;20066;-29
2021/01/27 06:18:46;;;;;;;15.43;13.82;;;16.70;65.70;;;;;;4977951;28;20504;-29
2021/01/27 06:21:17;;;;;;;16.38;14.52;;;16.70;65.80;;;;;;4978951;28;20051;-28
2021/01/27 06:23:46;;;;;;;14.50;13.02;;;16.70;65.60;;;;;;4984697;28;20063;-29
2021/01/27 06:26:14;;;;;;;12.98;11.68;;;16.80;65.60;;;;;;4982145;28;20057;-30
2021/01/27 06:28:54;;;;;;;15.05;13.45;;;16.80;65.30;;;;;;4991297;28;20046;-30
2021/01/27 06:31:55;;;;;;;13.23;11.82;;;16.90;65.10;;;;;;5013715;28;20510;-29
2021/01/27 06:34:36;;;;;;;12.15;10.85;;;16.90;65.10;;;;;;4992971;28;20407;-31
2021/01/27 06:37:20;;;;;;;13.00;11.43;;;16.80;64.80;;;;;;5023263;28;20046;-30
2021/01/27 06:39:48;;;;;;;12.05;10.95;;;16.80;64.90;;;;;;4989988;28;20078;-28
2021/01/27 06:42:35;;;;;;;12.20;11.00;;;16.80;64.80;;;;;;4985424;28;20039;-30
2021/01/27 06:45:04;;;;;;;15.15;13.52;;;16.80;64.80;;;;;;5001426;28;20423;-30
2021/01/27 06:47:35;;;;;;;20.45;16.15;;;16.80;64.80;;;;;;4990231;28;20450;-30
2021/01/27 06:50:10;;;;;;;17.50;15.25;;;16.80;64.70;;;;;;4990780;28;20046;-37
2021/01/27 06:52:35;;;;;;;18.00;14.77;;;16.80;64.70;;;;;;5032390;28;20470;-32
2021/01/27 06:55:39;;;;;;;16.10;12.98;;;16.90;64.90;;;;;;4980219;28;20054;-27
2021/01/27 06:58:24;;;;;;;15.20;12.90;;;16.90;65.40;;;;;;5003744;28;20182;-27
2021/01/27 07:01:06;;;;;;;15.35;13.75;;;16.90;65.80;;;;;;5080793;28;20097;-29
2021/01/27 07:03:41;;;;;;;14.00;12.55;;;17.00;65.50;;;;;;5002589;28;20050;-32
2021/01/27 07:06:23;;;;;;;12.98;11.68;;;17.00;65.60;;;;;;4992434;28;20034;-26
2021/01/27 07:08:54;;;;;;;12.75;11.45;;;17.10;66.00;;;;;;4986354;28;20576;-28
2021/01/27 07:11:41;;;;;;;13.63;11.82;;;17.10;66.20;;;;;;4988785;28;20047;-27
2021/01/27 07:14:13;;;;;;;13.13;10.88;;;17.10;65.30;;;;;;4985181;28;20050;-28
2021/01/27 07:16:41;;;;;;;11.00;9.90;;;17.20;65.30;;;;;;4987348;28;20046;-31
2021/01/27 07:19:17;;;;;;;12.95;11.02;;;17.30;65.40;;;;;;4987812;28;20045;-28
2021/01/27 07:21:53;;;;;;;12.07;10.48;;;17.30;65.40;;;;;;4989213;28;20052;-31
2021/01/27 07:24:28;;;;;;;15.00;12.13;;;17.30;64.80;;;;;;4975262;28;20116;-37
2021/01/27 07:26:56;;;;;;;11.52;10.35;;;17.30;65.40;;;;;;4985594;28;20104;-29
2021/01/27 07:29:26;;;;;;;10.98;9.88;;;17.40;63.90;;;;;;4990427;28;20138;-34
2021/01/27 07:31:57;;;;;;;10.82;9.82;;;17.60;64.60;;;;;;5002997;28;20042;-29
2021/01/27 07:34:43;;;;;;;11.05;9.90;;;17.60;63.30;;;;;;4986977;28;20504;-27
2021/01/27 07:37:28;;;;;;;11.73;10.25;;;17.70;62.90;;;;;;4977537;28;20046;-32
2021/01/27 07:39:56;;;;;;;;;;;17.70;63.00;;;;;;5050435;28;20051;-28
2021/01/27 07:42:26;;;;;;;11.85;10.63;;;17.70;62.80;;;;;;4966580;28;20021;-26
2021/01/27 07:44:59;;;;;;;10.30;9.23;;;17.70;63.60;;;;;;4979387;28;20174;-32
2021/01/27 07:47:39;;;;;;;10.55;9.38;;;17.70;63.00;;;;;;4982556;28;20043;-28
2021/01/27 07:50:05;;;;;;;14.02;10.20;;;17.70;62.30;;;;;;4970542;28;20034;-29
2021/01/27 07:52:36;;;;;;;9.02;8.15;;;17.70;62.30;;;;;;4967360;28;20396;-28
2021/01/27 07:55:23;;;;;;;11.13;9.80;;;17.70;62.50;;;;;;4987130;28;20026;-29
2021/01/27 07:58:07;;;;;;;9.75;8.75;;;17.70;62.20;;;;;;4982953;28;20110;-29
2021/01/27 08:00:41;;;;;;;9.85;8.88;;;17.70;62.20;;;;;;4971013;28;20080;-32
2021/01/27 08:03:25;;;;;;;8.90;8.10;;;17.80;62.10;;;;;;4954664;28;20054;-27
2021/01/27 08:05:53;;;;;;;9.00;8.10;;;17.80;62.00;;;;;;4962628;28;20138;-31
2021/01/27 08:08:22;;;;;;;8.63;7.82;;;17.90;61.90;;;;;;4966731;28;20039;-28
2021/01/27 08:10:48;;;;;;;8.35;7.65;;;17.90;61.90;;;;;;5010858;28;20040;-29
2021/01/27 08:13:29;;;;;;;8.77;7.88;;;17.90;61.70;;;;;;4967181;28;20411;-36
2021/01/27 08:16:24;;;;;;;7.90;7.28;;;18.00;61.70;;;;;;4967281;28;20074;-28
2021/01/27 08:19:08;;;;;;;8.40;7.60;;;17.90;61.50;;;;;;4977768;28;20059;-26
2021/01/27 08:21:53;;;;;;;8.45;7.65;;;17.90;61.50;;;;;;4989397;28;20103;-31
2021/01/27 08:24:37;;;;;;;8.32;7.60;;;17.90;61.50;;;;;;4984789;28;20497;-28
2021/01/27 08:27:15;;;;;;;7.90;7.20;;;17.90;61.40;;;;;;4984870;28;20488;-28
2021/01/27 08:29:41;;;;;;;8.50;7.80;;;17.90;61.60;;;;;;4979202;28;20039;-26
2021/01/27 08:32:25;;;;;;;7.22;6.68;;;17.90;62.50;;;;;;4990822;28;20552;-28
2021/01/27 08:34:52;;;;;;;7.93;7.32;;;17.90;61.60;;;;;;4955821;28;20412;-28
2021/01/27 08:37:20;;;;;;;7.43;6.82;;;17.90;61.50;;;;;;4964261;28;20093;-29
2021/01/27 08:39:46;;;;;;;8.35;7.65;;;17.90;61.30;;;;;;4969059;28;20051;-32
2021/01/27 08:42:24;;;;;;;7.57;6.80;;;17.90;61.20;;;;;;4978260;28;20527;-27
2021/01/27 08:44:49;;;;;;;8.18;7.45;;;17.90;61.20;;;;;;4966767;28;20051;-25
2021/01/27 08:47:37;;;;;;;7.45;6.75;;;17.90;61.20;;;;;;4964014;28;20491;-30
2021/01/27 08:50:03;;;;;;;7.82;7.22;;;17.90;61.10;;;;;;5039049;28;20066;-27
2021/01/27 08:52:31;;;;;;;7.55;7.05;;;18.00;61.30;;;;;;4973791;28;20096;-32
2021/01/27 08:54:57;;;;;;;8.70;8.10;;;17.90;61.30;;;;;;4987479;28;20571;-27
2021/01/27 08:57:33;;;;;;;8.50;7.78;;;17.90;61.20;;;;;;4980549;28;20138;-28
2021/01/27 09:00:01;;;;;;;7.80;7.10;;;17.80;61.20;;;;;;4981299;28;20054;-31
2021/01/27 09:02:45;;;;;;;7.22;6.70;;;17.90;61.20;;;;;;4986247;28;20073;-32
2021/01/27 09:05:18;;;;;;;7.60;7.00;;;17.80;61.40;;;;;;4981938;28;20082;-28
2021/01/27 09:08:05;;;;;;;7.88;7.18;;;17.80;61.30;;;;;;4975477;28;20048;-32
2021/01/27 09:10:31;;;;;;;7.13;6.60;;;17.80;61.40;;;;;;4976545;28;20224;-33
2021/01/27 09:12:56;;;;;;;6.47;6.07;;;17.70;61.60;;;;;;4988275;28;20131;-32
2021/01/27 09:15:34;;;;;;;8.05;7.05;;;17.70;62.10;;;;;;4973925;28;20062;-30
2021/01/27 09:18:03;;;;;;;7.07;6.55;;;17.60;62.50;;;;;;5064327;28;20047;-28
2021/01/27 09:20:29;;;;;;;7.22;6.63;;;17.60;62.60;;;;;;4983780;28;20419;-31
2021/01/27 09:22:59;;;;;;;7.22;6.63;;;17.60;63.40;;;;;;4984735;28;20061;-32
2021/01/27 09:25:26;;;;;;;7.07;6.47;;;17.60;62.70;;;;;;4985702;28;20125;-30
2021/01/27 09:28:04;;;;;;;6.80;6.35;;;17.50;62.80;;;;;;4986075;28;20113;-32
2021/01/27 09:30:30;;;;;;;8.00;7.30;;;17.40;62.90;;;;;;4983817;28;20051;-30
2021/01/27 09:33:15;;;;;;;7.82;7.03;;;17.50;62.80;;;;;;4982270;28;20050;-32
2021/01/27 09:35:42;;;;;;;7.38;6.78;;;17.50;62.60;;;;;;4994297;28;20084;-29
2021/01/27 09:38:16;;;;;;;7.20;6.50;;;17.60;63.40;;;;;;4982507;28;20129;-30
2021/01/27 09:40:59;;;;;;;6.20;5.80;;;17.60;62.30;;;;;;4979751;28;20060;-32
2021/01/27 09:43:24;;;;;;;6.25;5.85;;;17.60;62.50;;;;;;4982800;28;20049;-32
2021/01/27 09:45:50;;;;;;;6.60;6.10;;;17.60;62.60;;;;;;4969742;28;20058;-32
2021/01/27 09:48:18;;;;;;;9.27;5.50;;;17.50;62.70;;;;;;4983727;28;20049;-28
2021/01/27 09:50:50;;;;;;;6.43;5.93;;;17.60;62.90;;;;;;4984538;28;20411;-39
2021/01/27 09:53:35;;;;;;;5.65;5.35;;;17.50;62.90;;;;;;4959913;28;20050;-34
2021/01/27 09:56:01;;;;;;;6.18;5.75;;;17.50;63.00;;;;;;4967803;28;20042;-31
2021/01/27 09:58:26;;;;;;;6.22;5.75;;;17.50;63.00;;;;;;4982775;28;20045;-27
2021/01/27 10:00:59;;;;;;;6.10;5.70;;;17.60;63.00;;;;;;4983908;28;20718;-27
2021/01/27 10:03:32;;;;;;;5.57;5.18;;;17.60;63.00;;;;;;4966425;28;20511;-28
2021/01/27 10:06:00;;;;;;;5.45;5.15;;;17.60;63.00;;;;;;4982872;28;20058;-31
2021/01/27 10:08:30;;;;;;;5.47;5.10;;;17.60;63.00;;;;;;4983941;28;20073;-34
2021/01/27 10:11:03;;;;;;;5.50;5.20;;;17.50;63.00;;;;;;4983994;28;20064;-32
2021/01/27 10:13:31;;;;;;;5.95;5.55;;;17.50;63.20;;;;;;4982425;28;20030;-34
2021/01/27 10:16:11;;;;;;;5.20;4.80;;;17.50;63.20;;;;;;4983709;28;20054;-31
2021/01/27 10:18:37;;;;;;;5.28;4.90;;;17.50;63.20;;;;;;4984911;28;20053;-34
2021/01/27 10:21:05;;;;;;;5.22;4.93;;;17.60;62.80;;;;;;4982249;28;20081;-33
2021/01/27 10:23:45;;;;;;;6.25;5.78;;;17.70;62.60;;;;;;4983612;28;20054;-30
2021/01/27 10:26:37;;;;;;;5.70;5.20;;;17.70;62.60;;;;;;4981666;28;20042;-32
2021/01/27 10:29:32;;;;;;;5.15;4.85;;;17.60;62.70;;;;;;4982470;28;20481;-28
2021/01/27 10:32:18;;;;;;;5.18;4.78;;;17.60;62.80;;;;;;4981720;28;20457;-31
2021/01/27 10:34:45;;;;;;;4.90;4.60;;;17.60;62.70;;;;;;4984091;28;20061;-31
2021/01/27 10:37:35;;;;;;;5.55;5.20;;;17.60;62.90;;;;;;4982645;28;20076;-31
2021/01/27 10:40:19;;;;;;;5.18;4.75;;;17.60;62.40;;;;;;4988967;28;20042;-29
2021/01/27 10:42:54;;;;;;;5.18;4.80;;;17.60;62.90;;;;;;4987374;28;20190;-35
2021/01/27 10:45:31;;;;;;;4.93;4.63;;;17.60;62.60;;;;;;4986137;28;20050;-40
2021/01/27 10:47:58;;;;;;;5.45;4.95;;;17.60;62.70;;;;;;4986206;28;20050;-33
2021/01/27 10:50:25;;;;;;;5.55;5.15;;;17.60;62.60;;;;;;4985403;28;20125;-36
2021/01/27 10:52:50;;;;;;;5.53;5.13;;;17.60;62.90;;;;;;4970684;28;20038;-33
2021/01/27 10:55:16;;;;;;;4.68;4.40;;;17.60;62.90;;;;;;4987766;28;20407;-34
2021/01/27 10:57:42;;;;;;;4.93;4.63;;;17.60;62.90;;;;;;4986674;28;20131;-35
2021/01/27 11:00:10;;;;;;;4.32;4.03;;;17.60;62.60;;;;;;4984134;28;20046;-29
2021/01/27 11:02:36;;;;;;;4.28;3.97;;;17.70;62.50;;;;;;4970748;28;20535;-34
2021/01/27 11:05:02;;;;;;;5.05;4.60;;;17.70;62.60;;;;;;4986394;28;20051;-35
2021/01/27 11:07:28;;;;;;;4.57;4.28;;;17.70;62.70;;;;;;4983398;28;20117;-33
2021/01/27 11:09:53;;;;;;;4.90;4.50;;;17.70;62.20;;;;;;4986285;28;21704;-35
2021/01/27 11:12:19;;;;;;;4.82;4.30;;;17.70;62.50;;;;;;4985343;28;20420;-32
2021/01/27 11:14:45;;;;;;;4.65;4.35;;;17.60;62.80;;;;;;4985201;28;20072;-32
2021/01/27 11:17:11;;;;;;;4.78;4.47;;;17.60;63.00;;;;;;4984671;28;20046;-33
2021/01/27 11:19:36;;;;;;;4.57;4.28;;;17.50;63.10;;;;;;4985999;28;20069;-36
2021/01/27 11:22:02;;;;;;;4.32;4.03;;;17.50;63.00;;;;;;4986510;28;20030;-36
2021/01/27 11:24:28;;;;;;;3.60;3.40;;;17.60;62.50;;;;;;4986315;28;20058;-30
2021/01/27 11:26:53;;;;;;;5.80;5.40;;;17.60;63.60;;;;;;4985427;28;20396;-29
2021/01/27 11:29:19;;;;;;;10.93;8.30;;;17.70;62.30;;;;;;4982506;28;20232;-35
2021/01/27 11:31:44;;;;;;;19.95;13.73;;;17.70;62.20;;;;;;4986151;28;20078;-27
2021/01/27 11:34:10;;;;;;;22.23;15.52;;;17.70;62.10;;;;;;4986790;28;20046;-27
2021/01/27 11:36:36;;;;;;;24.98;17.88;;;17.70;62.10;;;;;;4985937;28;20081;-30
2021/01/27 11:39:01;;;;;;;29.05;21.85;;;17.80;62.20;;;;;;4988303;28;20365;-34
2021/01/27 11:41:27;;;;;;;29.92;22.27;;;17.70;62.30;;;;;;4986595;28;20039;-30
2021/01/27 11:43:52;;;;;;;29.13;21.02;;;17.70;62.40;;;;;;4986179;28;20042;-31
2021/01/27 11:46:19;;;;;;;28.90;21.65;;;17.60;62.60;;;;;;4986982;28;20042;-29
2021/01/27 11:48:44;;;;;;;37.97;26.05;;;17.60;62.90;;;;;;5001383;28;20465;-29
2021/01/27 11:51:10;;;;;;;39.92;27.75;;;17.60;63.00;;;;;;4986381;28;20042;-30
2021/01/27 11:53:40;;;;;;;39.00;28.40;;;17.50;63.20;;;;;;4986108;28;20149;-29
2021/01/27 11:56:06;;;;;;;43.25;32.08;;;17.50;63.20;;;;;;4986241;28;20066;-31
2021/01/27 11:58:32;;;;;;;45.63;34.42;;;17.50;63.40;;;;;;4982582;28;20058;-29
2021/01/27 12:00:57;;;;;;;44.78;31.52;;;17.60;63.60;;;;;;4987768;28;20046;-29
2021/01/27 12:03:23;;;;;;;41.67;30.35;;;17.70;63.00;;;;;;4986976;28;20042;-31
2021/01/27 12:05:49;;;;;;;46.67;33.83;;;17.70;64.00;;;;;;4987793;28;20058;-29
2021/01/27 12:08:18;;;;;;;46.65;32.33;;;17.60;63.40;;;;;;5001110;28;20052;-32
2021/01/27 12:10:44;;;;;;;41.05;31.17;;;17.70;63.10;;;;;;4984787;28;20072;-31
2021/01/27 12:13:10;;;;;;;48.58;33.40;;;17.80;63.50;;;;;;4986567;28;20038;-35
2021/01/27 12:15:35;;;;;;;45.65;33.78;;;17.90;62.90;;;;;;4981339;28;20203;-38
2021/01/27 12:18:01;;;;;;;50.45;35.70;;;17.90;63.40;;;;;;4995731;28;20039;-29
2021/01/27 12:20:26;;;;;;;48.92;35.92;;;18.00;63.50;;;;;;4983311;28;20046;-31
2021/01/27 12:22:52;;;;;;;44.45;32.42;;;18.00;62.90;;;;;;4982828;28;20042;-34
2021/01/27 12:25:18;;;;;;;44.72;31.15;;;17.90;63.00;;;;;;4983713;28;20089;-33
2021/01/27 12:27:43;;;;;;;41.95;30.33;;;18.00;63.20;;;;;;4983755;28;20046;-39
2021/01/27 12:30:10;;;;;;;39.75;28.88;;;17.90;63.20;;;;;;4638360;28;10000328;-33
2021/01/27 12:32:35;;;;;;;41.30;28.85;;;17.90;63.40;;;;;;4982358;28;20053;-32
2021/01/27 12:35:01;;;;;;;40.38;30.75;;;17.90;63.50;;;;;;4981974;28;20054;-34
2021/01/27 12:37:27;;;;;;;39.58;30.17;;;17.80;63.60;;;;;;4982545;28;20511;-37
2021/01/27 12:39:52;;;;;;;42.75;29.30;;;17.80;64.70;;;;;;4983102;28;20050;-31
2021/01/27 12:42:18;;;;;;;42.03;28.75;;;17.80;63.90;;;;;;4981513;28;20072;-34
2021/01/27 12:44:44;;;;;;;39.25;28.65;;;17.70;63.90;;;;;;4982317;28;20415;-35
2021/01/27 12:47:10;;;;;;;38.83;28.67;;;17.80;64.10;;;;;;4982076;28;20068;-31
2021/01/27 12:49:36;;;;;;;41.08;31.20;;;17.80;64.30;;;;;;4981598;28;20058;-30
2021/01/27 12:52:01;;;;;;;39.90;30.05;;;17.70;64.20;;;;;;4980850;28;20404;-28
2021/01/27 12:54:27;;;;;;;37.70;27.77;;;17.80;64.30;;;;;;4983245;28;20065;-29
2021/01/27 12:56:52;;;;;;;35.78;28.17;;;17.80;64.30;;;;;;4982803;28;20116;-34
2021/01/27 12:59:18;;;;;;;36.15;27.35;;;17.80;64.40;;;;;;4982945;28;20396;-27
2021/01/27 13:01:43;;;;;;;32.17;25.02;;;17.80;64.40;;;;;;4983179;28;20058;-30
2021/01/27 13:04:10;;;;;;;28.77;23.00;;;17.80;64.00;;;;;;4983452;28;20047;-36
2021/01/27 13:06:35;;;;;;;31.80;24.52;;;17.90;64.10;;;;;;4983263;28;20091;-36
2021/01/27 13:09:01;;;;;;;33.55;26.45;;;17.90;64.00;;;;;;4983495;28;20054;-36
2021/01/27 13:11:27;;;;;;;30.88;25.02;;;17.90;64.40;;;;;;4984086;28;20066;-35
2021/01/27 13:13:52;;;;;;;32.85;25.50;;;17.90;64.40;;;;;;5002237;28;20135;-36
2021/01/27 13:16:18;;;;;;;31.58;25.65;;;17.80;64.00;;;;;;4983834;28;20039;-30
2021/01/27 13:18:43;;;;;;;29.95;24.10;;;18.00;63.30;;;;;;4983423;28;20054;-29
2021/01/27 13:21:09;;;;;;;30.80;23.42;;;18.10;62.60;;;;;;4983365;28;20038;-30
2021/01/27 13:23:35;;;;;;;28.70;22.80;;;18.30;62.40;;;;;;4985286;28;20080;-36
2021/01/27 13:26:02;;;;;;;30.20;23.27;;;18.40;61.80;;;;;;4982495;28;20119;-32
2021/01/27 13:28:28;;;;;;;28.35;22.55;;;18.50;61.70;;;;;;4980893;28;20073;-37
2021/01/27 13:30:53;;;;;;;25.70;20.95;;;18.50;61.40;;;;;;4986650;28;20058;-33
2021/01/27 13:33:19;;;;;;;25.88;20.25;;;18.50;61.40;;;;;;4984073;28;20073;-34
2021/01/27 13:35:45;;;;;;;26.63;19.60;;;18.60;61.00;;;;;;4984345;28;20046;-33
2021/01/27 13:38:12;;;;;;;26.58;19.02;;;18.60;61.00;;;;;;4983694;28;20426;-30
2021/01/27 13:40:38;;;;;;;23.95;18.90;;;18.60;60.90;;;;;;4984449;28;20046;-38
2021/01/27 13:43:03;;;;;;;23.80;19.17;;;18.70;60.70;;;;;;4985373;28;20648;-31
2021/01/27 13:45:29;;;;;;;24.88;19.15;;;18.70;60.60;;;;;;4980731;28;20103;-31
2021/01/27 13:47:55;;;;;;;21.15;18.00;;;18.70;60.60;;;;;;4987526;28;20063;-31
2021/01/27 13:50:21;;;;;;;22.67;18.13;;;18.80;60.60;;;;;;4983819;28;20491;-30
2021/01/27 13:52:47;;;;;;;23.88;18.33;;;18.80;60.50;;;;;;4985637;28;20673;-28
2021/01/27 13:55:13;;;;;;;20.85;16.63;;;18.80;60.30;;;;;;4985125;28;20046;-35
2021/01/27 13:57:39;;;;;;;19.30;15.82;;;18.80;60.20;;;;;;4982521;28;20058;-30
2021/01/27 14:00:06;;;;;;;21.23;15.77;;;18.90;60.30;;;;;;4983956;28;20103;-33
2021/01/27 14:02:31;;;;;;;18.95;16.35;;;18.90;60.20;;;;;;4983339;28;20103;-27
2021/01/27 14:04:57;;;;;;;19.65;15.30;;;18.90;60.10;;;;;;4983795;28;20460;-31
2021/01/27 14:07:22;;;;;;;19.25;16.38;;;18.90;60.10;;;;;;4983230;28;20038;-31
2021/01/27 14:09:48;;;;;;;17.58;15.13;;;19.00;60.00;;;;;;4985049;28;20491;-32
2021/01/27 14:12:14;;;;;;;16.52;14.05;;;19.00;60.00;;;;;;4984084;28;20153;-30
2021/01/27 14:14:42;;;;;;;15.40;13.80;;;19.00;60.00;;;;;;4982047;28;20062;-28
2021/01/27 14:17:08;;;;;;;16.58;14.55;;;19.00;59.90;;;;;;4986652;28;20103;-31
2021/01/27 14:19:34;;;;;;;16.88;14.38;;;19.00;59.80;;;;;;4988173;28;20046;-35
2021/01/27 14:22:00;;;;;;;14.77;12.57;;;19.00;59.80;;;;;;4988286;28;20528;-29
2021/01/27 14:24:25;;;;;;;13.38;11.98;;;19.10;59.80;;;;;;4986477;28;20054;-33
2021/01/27 14:26:51;;;;;;;14.15;12.27;;;19.10;59.90;;;;;;4986177;28;20435;-32
2021/01/27 14:29:17;;;;;;;14.25;12.73;;;19.10;59.90;;;;;;4986097;28;20152;-30
2021/01/27 14:31:42;;;;;;;12.73;11.43;;;19.10;59.70;;;;;;4988146;28;20046;-37
2021/01/27 14:34:09;;;;;;;13.40;12.00;;;19.10;59.70;;;;;;4987824;28;20046;-36
2021/01/27 14:36:35;;;;;;;13.32;11.93;;;19.10;59.70;;;;;;4987240;28;20030;-45
2021/01/27 14:39:00;;;;;;;13.43;12.02;;;19.10;59.80;;;;;;4985771;28;20076;-38
2021/01/27 14:41:27;;;;;;;13.98;12.23;;;19.10;60.10;;;;;;4986548;28;20042;-33
2021/01/27 14:43:53;;;;;;;12.85;11.55;;;19.10;60.10;;;;;;4986304;28;20026;-29
2021/01/27 14:46:18;;;;;;;11.73;10.45;;;19.10;60.10;;;;;;4988865;28;20042;-34
2021/01/27 14:48:44;;;;;;;11.23;10.02;;;19.10;60.10;;;;;;4989396;28;20023;-33
2021/01/27 14:51:10;;;;;;;11.77;10.68;;;19.10;59.90;;;;;;4985978;28;20062;-30
2021/01/27 14:53:35;;;;;;;12.00;10.60;;;19.20;60.40;;;;;;4983616;28;20042;-31
2021/01/27 14:56:01;;;;;;;12.25;10.52;;;19.20;60.10;;;;;;4987653;28;20045;-32
2021/01/27 14:58:26;;;;;;;12.27;10.32;;;19.20;59.90;;;;;;4987457;28;20038;-40
2021/01/27 15:00:52;;;;;;;10.68;9.57;;;19.10;60.20;;;;;;4983042;28;20465;-33
2021/01/27 15:03:17;;;;;;;9.77;8.85;;;19.10;60.00;;;;;;4987108;28;20042;-44
2021/01/27 15:05:43;;;;;;;10.23;9.15;;;19.10;60.10;;;;;;4986201;28;20613;-36
2021/01/27 15:08:08;;;;;;;9.48;8.57;;;19.00;60.50;;;;;;4986293;28;20043;-32
2021/01/27 15:10:34;;;;;;;10.68;8.70;;;19.00;60.60;;;;;;4986939;28;20035;-38
2021/01/27 15:13:00;;;;;;;9.50;8.50;;;19.00;60.40;;;;;;4994903;28;20054;-34
2021/01/27 15:15:25;;;;;;;9.00;8.15;;;19.10;60.60;;;;;;4996641;28;20069;-33
2021/01/27 15:17:51;;;;;;;9.90;8.98;;;19.10;60.30;;;;;;4986830;28;20053;-29
2021/01/27 15:20:26;;;;;;;9.05;8.15;;;19.10;60.40;;;;;;4987480;28;20203;-35
2021/01/27 15:22:52;;;;;;;8.88;8.07;;;19.10;60.60;;;;;;4982474;28;20043;-43
2021/01/27 15:25:18;;;;;;;8.50;7.70;;;19.10;60.70;;;;;;4979879;28;20415;-33
2021/01/27 15:27:43;;;;;;;8.88;8.07;;;19.10;60.70;;;;;;4985342;28;20050;-34
2021/01/27 15:30:10;;;;;;;9.57;8.57;;;19.00;60.90;;;;;;4982514;28;20049;-34
2021/01/27 15:32:36;;;;;;;8.60;7.78;;;19.00;61.00;;;;;;4985727;28;20187;-35
2021/01/27 15:35:02;;;;;;;9.25;8.38;;;19.00;61.00;;;;;;4984885;28;20057;-33
2021/01/27 15:37:28;;;;;;;9.02;8.25;;;19.00;60.70;;;;;;4985540;28;20360;-35
2021/01/27 15:39:54;;;;;;;8.07;7.28;;;19.00;61.00;;;;;;4986996;28;20046;-32
2021/01/27 15:42:19;;;;;;;8.20;7.50;;;18.90;61.20;;;;;;4984469;28;20395;-31
2021/01/27 15:44:45;;;;;;;8.55;7.78;;;18.90;61.30;;;;;;4984913;28;20050;-32
2021/01/27 15:47:10;;;;;;;8.35;7.55;;;18.80;61.70;;;;;;4987226;28;20042;-36
2021/01/27 15:49:36;;;;;;;9.60;8.57;;;18.80;61.90;;;;;;4983776;28;20046;-35
2021/01/27 15:52:02;;;;;;;9.95;9.05;;;18.70;61.90;;;;;;4974809;28;20058;-33
2021/01/27 15:54:27;;;;;;;8.05;7.35;;;18.70;62.20;;;;;;4974497;28;20051;-48
2021/01/27 15:56:53;;;;;;;9.60;8.70;;;18.80;62.00;;;;;;4978808;28;20053;-32
2021/01/27 15:59:18;;;;;;;8.82;7.90;;;18.80;62.20;;;;;;4980156;28;20077;-34
2021/01/27 16:01:44;;;;;;;9.68;7.93;;;18.80;61.70;;;;;;5006512;28;20043;-37
2021/01/27 16:04:11;;;;;;;8.05;7.35;;;18.80;61.90;;;;;;4996821;28;20527;-32
2021/01/27 16:06:37;;;;;;;9.18;8.38;;;18.90;61.60;;;;;;5007010;28;20050;-33
2021/01/27 16:09:03;;;;;;;8.77;7.95;;;18.90;61.70;;;;;;4982970;28;20046;-39
2021/01/27 16:11:29;;;;;;;7.95;6.88;;;18.90;61.60;;;;;;4984571;28;20051;-36
2021/01/27 16:13:54;;;;;;;7.60;7.00;;;18.90;61.50;;;;;;4978878;28;20506;-38
2021/01/27 16:16:20;;;;;;;7.10;6.45;;;18.90;61.30;;;;;;4983338;28;20070;-37
2021/01/27 16:18:45;;;;;;;8.20;7.32;;;18.90;61.30;;;;;;4985981;28;20042;-33
2021/01/27 16:21:11;;;;;;;7.10;6.50;;;18.90;61.60;;;;;;4984928;28;20042;-33
2021/01/27 16:23:36;;;;;;;7.50;6.78;;;18.90;61.60;;;;;;4983950;28;20515;-37
2021/01/27 16:26:02;;;;;;;6.95;6.45;;;19.00;61.50;;;;;;4983380;28;20054;-33
2021/01/27 16:28:28;;;;;;;7.22;6.53;;;19.00;61.50;;;;;;4983638;28;20051;-37
2021/01/27 16:30:55;;;;;;;6.78;6.10;;;19.00;62.20;;;;;;4987053;28;20085;-31
2021/01/27 16:33:20;;;;;;;7.72;7.07;;;19.10;61.20;;;;;;4983702;28;20038;-32
2021/01/27 16:35:47;;;;;;;6.60;6.00;;;19.10;61.10;;;;;;4984672;28;20056;-30
2021/01/27 16:38:12;;;;;;;7.30;6.60;;;19.10;60.70;;;;;;4984185;28;20060;-31
2021/01/27 16:40:38;;;;;;;6.18;5.68;;;19.20;60.80;;;;;;4985209;28;20047;-36
2021/01/27 16:43:04;;;;;;;5.93;5.53;;;19.20;60.40;;;;;;4986512;28;30969;-33
2021/01/27 16:45:30;;;;;;;6.82;6.22;;;19.20;60.30;;;;;;4985581;28;20042;-33
2021/01/27 16:47:56;;;;;;;6.25;5.80;;;19.20;60.30;;;;;;4984315;28;20058;-32
2021/01/27 16:50:22;;;;;;;6.22;5.72;;;19.20;60.30;;;;;;4985842;28;20069;-32
2021/01/27 16:52:48;;;;;;;6.93;6.15;;;19.30;60.10;;;;;;4984634;28;20046;-31
2021/01/27 16:55:14;;;;;;;6.50;6.00;;;19.30;60.00;;;;;;4985429;28;20503;-33
2021/01/27 16:57:41;;;;;;;6.60;5.57;;;19.30;59.80;;;;;;4985314;28;20045;-31
2021/01/27 17:00:08;;;;;;;5.55;5.05;;;19.30;59.90;;;;;;4985936;28;20127;-32
2021/01/27 17:02:33;;;;;;;5.47;5.07;;;19.30;59.90;;;;;;4985275;28;20053;-34
2021/01/27 17:04:59;;;;;;;5.80;5.30;;;19.30;59.90;;;;;;4983673;28;20050;-34
2021/01/27 17:07:25;;;;;;;5.97;5.38;;;19.20;59.90;;;;;;4982468;28;20042;-30
2021/01/27 17:09:50;;;;;;;5.70;5.30;;;19.10;60.40;;;;;;4985191;28;20046;-31
2021/01/27 17:12:16;;;;;;;5.85;5.35;;;19.10;61.30;;;;;;5001825;28;20088;-33
2021/01/27 17:14:42;;;;;;;5.80;5.38;;;19.10;60.70;;;;;;4994235;28;20046;-35
2021/01/27 17:17:07;;;;;;;6.13;5.53;;;19.00;60.80;;;;;;4984716;28;20101;-28
2021/01/27 17:19:33;;;;;;;6.53;5.93;;;19.00;60.80;;;;;;4985466;28;20034;-33
2021/01/27 17:21:58;;;;;;;6.78;6.18;;;19.10;61.00;;;;;;4986477;28;20551;-36
2021/01/27 17:24:24;;;;;;;9.32;8.07;;;19.00;61.20;;;;;;4984609;28;20070;-30
2021/01/27 17:26:49;;;;;;;10.27;7.85;;;19.10;61.30;;;;;;4983968;28;20042;-28
2021/01/27 17:29:15;;;;;;;14.98;11.70;;;19.20;61.20;;;;;;4985313;28;20046;-34
2021/01/27 17:31:41;;;;;;;21.70;15.15;;;19.10;61.20;;;;;;4985043;28;20383;-30
2021/01/27 17:34:06;;;;;;;21.48;15.10;;;19.10;60.90;;;;;;4986314;28;20487;-34
2021/01/27 17:36:32;;;;;;;23.30;16.48;;;19.10;61.10;;;;;;4985046;28;20046;-33
2021/01/27 17:38:58;;;;;;;25.35;18.30;;;19.10;61.30;;;;;;4982503;28;20038;-29
2021/01/27 17:41:24;;;;;;;28.08;18.90;;;19.10;61.30;;;;;;4984819;28;20511;-34
2021/01/27 17:43:50;;;;;;;23.83;17.85;;;19.10;61.10;;;;;;4983256;28;20034;-31
2021/01/27 17:46:16;;;;;;;25.88;17.17;;;19.20;61.10;;;;;;4982491;28;20131;-30
2021/01/27 17:48:42;;;;;;;23.20;17.77;;;19.20;61.10;;;;;;4984851;28;20125;-30
2021/01/27 17:51:08;;;;;;;23.63;18.20;;;19.20;61.10;;;;;;4980284;28;20050;-31
2021/01/27 17:53:33;;;;;;;33.03;21.63;;;19.20;61.30;;;;;;4982604;28;20034;-31
2021/01/27 17:55:59;;;;;;;28.08;19.73;;;19.20;63.20;;;;;;4636565;28;9999939;-31
2021/01/27 17:58:24;;;;;;;30.00;20.35;;;19.20;62.00;;;;;;4982409;28;20118;-32
2021/01/27 18:00:50;;;;;;;27.52;19.17;;;19.20;62.10;;;;;;4983482;28;20031;-33
2021/01/27 18:03:15;;;;;;;25.35;18.38;;;19.20;61.90;;;;;;4984842;28;20522;-33
2021/01/27 18:05:41;;;;;;;26.63;18.70;;;19.20;61.90;;;;;;4984372;28;20532;-31
2021/01/27 18:08:08;;;;;;;24.35;17.38;;;19.20;62.30;;;;;;4999449;28;20022;-34
2021/01/27 18:10:34;;;;;;;25.05;16.95;;;19.30;62.20;;;;;;4983777;28;20468;-34
2021/01/27 18:13:00;;;;;;;22.58;16.77;;;19.30;62.10;;;;;;4982328;28;20034;-29
2021/01/27 18:15:27;;;;;;;24.42;17.42;;;19.30;62.20;;;;;;4968105;28;20184;-29
2021/01/27 18:17:53;;;;;;;24.88;17.77;;;19.30;62.50;;;;;;4983447;28;20023;-41
2021/01/27 18:20:23;;;;;;;23.13;17.05;;;19.20;62.60;;;;;;4982159;28;20102;-32
2021/01/27 18:22:48;;;;;;;24.17;17.77;;;19.30;62.40;;;;;;4982625;28;20365;-35
2021/01/27 18:25:15;;;;;;;24.67;17.50;;;19.30;62.20;;;;;;4980901;28;20547;-32
2021/01/27 18:27:41;;;;;;;24.88;16.73;;;19.30;62.70;;;;;;4978718;28;20026;-35
2021/01/27 18:30:08;;;;;;;23.35;15.52;;;19.20;63.80;;;;;;4977693;28;20034;-36
2021/01/27 18:32:34;;;;;;;20.40;15.57;;;19.20;64.60;;;;;;4998242;28;21518;-36
2021/01/27 18:34:59;;;;;;;22.63;16.00;;;19.20;64.50;;;;;;4981565;28;20498;-31
2021/01/27 18:37:25;;;;;;;22.25;15.55;;;19.20;64.50;;;;;;4981854;28;20031;-42
2021/01/27 18:39:51;;;;;;;20.40;15.45;;;19.30;64.30;;;;;;4984033;28;20037;-32
2021/01/27 18:42:17;;;;;;;19.25;14.13;;;19.30;64.20;;;;;;4979871;28;20113;-31
2021/01/27 18:44:42;;;;;;;23.65;15.00;;;19.30;64.00;;;;;;4980735;28;20061;-34
2021/01/27 18:47:08;;;;;;;20.20;14.68;;;19.30;63.80;;;;;;4981536;28;20075;-29
2021/01/27 18:49:33;;;;;;;19.92;14.90;;;19.30;64.00;;;;;;4982475;28;20253;-35